createdAt,value
2023-02-04T00:00:11.229Z,3.40
2023-02-04T00:02:39.131Z,3.50
2023-02-04T00:05:08.396Z,3.43
2023-02-04T00:07:35.882Z,3.93
2023-02-04T00:10:03.504Z,3.23
2023-02-04T00:12:30.905Z,3.77
2023-02-04T00:14:58.376Z,3.83
2023-02-04T00:17:25.844Z,2.40
2023-02-04T00:19:53.287Z,3.00
2023-02-04T00:22:22.093Z,3.40
2023-02-04T00:24:50.602Z,3.07
2023-02-04T00:27:18.062Z,3.00
2023-02-04T00:29:45.519Z,3.60
2023-02-04T00:32:13.101Z,3.07
2023-02-04T00:34:40.669Z,4.30
2023-02-04T00:37:08.238Z,3.00
2023-02-04T00:39:37.103Z,3.20
2023-02-04T00:42:05.725Z,3.20
2023-02-04T00:44:33.265Z,3.90
2023-02-04T00:47:00.789Z,3.77
2023-02-04T00:49:28.352Z,3.10
2023-02-04T00:51:55.762Z,3.83
2023-02-04T00:54:23.339Z,3.50
2023-02-04T00:56:52.148Z,4.00
2023-02-04T00:59:19.560Z,3.27
2023-02-04T01:01:47.062Z,3.40
2023-02-04T01:04:14.925Z,3.53
2023-02-04T01:06:42.589Z,3.67
2023-02-04T01:09:10.171Z,3.90
2023-02-04T01:11:37.601Z,3.80
2023-02-04T01:14:06.413Z,3.00
2023-02-04T01:16:34.037Z,3.80
2023-02-04T01:19:01.463Z,3.60
2023-02-04T01:21:28.907Z,3.37
2023-02-04T01:23:56.502Z,3.80
2023-02-04T01:26:23.988Z,3.70
2023-02-04T01:28:51.607Z,3.70
2023-02-04T01:31:20.446Z,3.20
2023-02-04T01:33:48.067Z,3.47
2023-02-04T01:36:16.592Z,3.30
2023-02-04T01:38:44.064Z,3.70
2023-02-04T01:41:11.480Z,3.90
2023-02-04T01:43:38.962Z,3.43
2023-02-04T01:46:06.982Z,3.10
2023-02-04T01:48:35.843Z,4.00
2023-02-04T01:51:04.648Z,3.10
2023-02-04T01:53:32.702Z,3.17
2023-02-04T01:56:00.344Z,3.80
2023-02-04T01:58:31.248Z,3.63
2023-02-04T02:00:58.744Z,3.50
2023-02-04T02:03:26.191Z,3.70
2023-02-04T02:05:55.620Z,3.80
2023-02-04T02:08:23.010Z,3.70
2023-02-04T02:10:50.518Z,4.20
2023-02-04T02:13:19.460Z,3.67
2023-02-04T02:15:47.531Z,3.60
2023-02-04T02:18:15.337Z,3.87
2023-02-04T02:20:43.905Z,4.27
2023-02-04T02:23:17.360Z,3.80
2023-02-04T02:25:46.529Z,3.73
2023-02-04T02:28:14.947Z,3.20
2023-02-04T02:30:45.405Z,3.47
2023-02-04T02:33:14.785Z,3.33
2023-02-04T02:35:43.486Z,3.50
2023-02-04T02:38:11.365Z,3.37
2023-02-04T02:40:38.847Z,3.90
2023-02-04T02:43:07.824Z,3.70
2023-02-04T02:45:35.716Z,3.73
2023-02-04T02:48:03.833Z,3.23
2023-02-04T02:50:32.398Z,3.03
2023-02-04T02:53:00.113Z,3.43
2023-02-04T02:55:28.601Z,3.70
2023-02-04T02:57:57.113Z,3.77
2023-02-04T03:00:26.735Z,3.60
2023-02-04T03:02:57.882Z,3.67
2023-02-04T03:05:25.828Z,3.53
2023-02-04T03:07:53.407Z,3.27
2023-02-04T03:10:20.778Z,3.30
2023-02-04T03:12:48.407Z,3.43
2023-02-04T03:15:16.036Z,3.47
2023-02-04T03:17:45.418Z,3.13
2023-02-04T03:20:13.345Z,3.20
2023-02-04T03:22:40.764Z,3.40
2023-02-04T03:25:08.817Z,3.80
2023-02-04T03:27:36.372Z,3.30
2023-02-04T03:30:03.859Z,3.83
2023-02-04T03:32:31.239Z,3.57
2023-02-04T03:35:00.042Z,3.47
2023-02-04T03:37:27.538Z,3.37
2023-02-04T03:39:55.191Z,3.43
2023-02-04T03:42:22.615Z,3.13
2023-02-04T03:44:50.048Z,3.17
2023-02-04T03:47:17.448Z,3.23
2023-02-04T03:49:44.813Z,3.87
2023-02-04T03:52:13.598Z,3.70
2023-02-04T03:54:41.015Z,3.23
2023-02-04T03:57:08.505Z,3.90
2023-02-04T03:59:35.908Z,3.07
2023-02-04T04:02:03.352Z,3.10
2023-02-04T04:04:30.813Z,3.87
2023-02-04T04:06:58.246Z,3.90
2023-02-04T04:09:27.015Z,3.40
2023-02-04T04:11:54.440Z,3.53
2023-02-04T04:14:21.835Z,3.63
2023-02-04T04:16:49.379Z,3.10
2023-02-04T04:19:16.865Z,3.37
2023-02-04T04:21:44.236Z,3.03
2023-02-04T04:24:11.622Z,3.57
2023-02-04T04:26:40.358Z,2.97
2023-02-04T04:29:07.815Z,3.40
2023-02-04T04:31:35.325Z,3.43
2023-02-04T04:34:02.801Z,2.57
2023-02-04T04:36:30.219Z,3.20
2023-02-04T04:38:57.647Z,3.40
2023-02-04T04:41:25.118Z,2.60
2023-02-04T04:43:53.984Z,3.07
2023-02-04T04:46:21.412Z,2.77
2023-02-04T04:48:49.096Z,2.47
2023-02-04T04:51:16.501Z,2.50
2023-02-04T04:53:43.889Z,3.33
2023-02-04T04:56:11.312Z,2.70
2023-02-04T04:58:38.790Z,3.30
2023-02-04T05:01:07.683Z,3.80
2023-02-04T05:03:35.167Z,3.03
2023-02-04T05:06:02.589Z,2.77
2023-02-04T05:08:29.991Z,2.77
2023-02-04T05:10:57.362Z,2.63
2023-02-04T05:13:25.369Z,2.90
2023-02-04T05:15:52.996Z,3.07
2023-02-04T05:18:21.730Z,3.03
2023-02-04T05:20:49.216Z,2.47
2023-02-04T05:23:17.097Z,2.80
2023-02-04T05:25:44.517Z,2.90
2023-02-04T05:28:11.985Z,2.90
2023-02-04T05:30:39.455Z,2.73
2023-02-04T05:33:06.912Z,3.30
2023-02-04T05:35:35.646Z,2.57
2023-02-04T05:38:03.068Z,3.00
2023-02-04T05:40:31.021Z,3.00
2023-02-04T05:42:58.732Z,3.47
2023-02-04T05:45:26.206Z,3.37
2023-02-04T05:47:54.037Z,3.10
2023-02-04T05:50:21.514Z,3.20
2023-02-04T05:52:50.333Z,3.30
2023-02-04T05:55:17.856Z,3.40
2023-02-04T05:57:45.298Z,3.30
2023-02-04T06:00:13.190Z,2.60
2023-02-04T06:02:40.658Z,3.47
2023-02-04T06:05:08.308Z,2.77
2023-02-04T06:07:35.737Z,3.50
2023-02-04T06:10:04.592Z,3.07
2023-02-04T06:12:31.998Z,3.77
2023-02-04T06:14:59.449Z,3.27
2023-02-04T06:17:26.880Z,3.47
2023-02-04T06:19:54.261Z,3.60
2023-02-04T06:22:24.320Z,3.57
2023-02-04T06:24:51.782Z,3.07
2023-02-04T06:27:23.374Z,3.53
2023-02-04T06:29:50.889Z,3.00
2023-02-04T06:32:18.337Z,3.80
2023-02-04T06:34:45.822Z,3.70
2023-02-04T06:37:13.809Z,4.07
2023-02-04T06:39:41.231Z,3.17
2023-02-04T06:42:08.657Z,3.80
2023-02-04T06:44:37.464Z,3.33
2023-02-04T06:47:04.857Z,3.03
2023-02-04T06:49:32.317Z,3.30
2023-02-04T06:51:59.744Z,3.33
2023-02-04T06:54:27.219Z,2.90
2023-02-04T06:56:54.641Z,3.23
2023-02-04T06:59:22.053Z,3.47
2023-02-04T07:01:50.833Z,3.50
2023-02-04T07:04:18.212Z,2.83
2023-02-04T07:06:45.667Z,3.50
2023-02-04T07:09:13.044Z,3.33
2023-02-04T07:11:40.512Z,3.20
2023-02-04T07:14:07.982Z,3.70
2023-02-04T07:16:35.367Z,4.87
2023-02-04T07:19:04.194Z,3.33
2023-02-04T07:21:31.731Z,3.83
2023-02-04T07:24:01.323Z,3.53
2023-02-04T07:26:28.756Z,4.20
2023-02-04T07:28:56.371Z,4.07
2023-02-04T07:31:23.957Z,4.57
2023-02-04T07:33:51.435Z,3.90
2023-02-04T07:36:20.248Z,3.90
2023-02-04T07:38:47.669Z,4.00
2023-02-04T07:41:15.039Z,4.50
2023-02-04T07:43:42.745Z,4.00
2023-02-04T07:46:10.234Z,4.33
2023-02-04T07:48:37.726Z,4.93
2023-02-04T07:51:05.267Z,4.40
2023-02-04T07:53:34.498Z,4.00
2023-02-04T07:56:02.128Z,4.43
2023-02-04T07:58:29.559Z,4.07
2023-02-04T08:00:56.924Z,4.30
2023-02-04T08:03:24.308Z,4.17
2023-02-04T08:05:51.712Z,5.23
2023-02-04T08:08:19.223Z,4.70
2023-02-04T08:10:48.261Z,4.83
2023-02-04T08:13:15.725Z,5.00
2023-02-04T08:15:43.123Z,4.50
2023-02-04T08:18:10.643Z,4.30
2023-02-04T08:20:38.067Z,4.93
2023-02-04T08:23:05.550Z,4.20
2023-02-04T08:25:32.945Z,3.93
2023-02-04T08:28:04.050Z,4.30
2023-02-04T08:30:31.805Z,4.10
2023-02-04T08:32:59.467Z,4.20
2023-02-04T08:35:26.885Z,4.70
2023-02-04T08:37:54.357Z,5.30
2023-02-04T08:40:21.721Z,4.73
2023-02-04T08:42:49.147Z,4.40
2023-02-04T08:45:18.196Z,4.80
2023-02-04T08:47:45.634Z,5.33
2023-02-04T08:50:13.040Z,5.27
2023-02-04T08:52:40.502Z,5.77
2023-02-04T08:55:08.407Z,6.27
2023-02-04T08:57:35.863Z,5.53
2023-02-04T09:00:03.466Z,6.60
2023-02-04T09:02:32.233Z,4.70
2023-02-04T09:04:59.629Z,5.20
2023-02-04T09:07:27.071Z,5.63
2023-02-04T09:09:54.443Z,5.37
2023-02-04T09:12:21.870Z,5.30
2023-02-04T09:14:49.297Z,6.27
2023-02-04T09:17:16.843Z,5.87
2023-02-04T09:19:45.671Z,6.40
2023-02-04T09:22:13.356Z,5.93
2023-02-04T09:24:40.873Z,6.30
2023-02-04T09:27:08.374Z,5.73
2023-02-04T09:29:36.083Z,6.97
2023-02-04T09:32:03.705Z,6.33
2023-02-04T09:34:31.263Z,5.63
2023-02-04T09:36:59.999Z,6.20
2023-02-04T09:39:27.711Z,7.57
2023-02-04T09:41:55.410Z,8.40
2023-02-04T09:44:25.660Z,8.27
2023-02-04T09:46:54.246Z,8.18
2023-02-04T09:49:21.670Z,8.77
2023-02-04T09:51:49.899Z,9.50
2023-02-04T09:54:19.965Z,9.57
2023-02-04T09:56:47.751Z,8.00
2023-02-04T09:59:15.834Z,7.70
2023-02-04T10:01:43.326Z,8.17
2023-02-04T10:04:12.365Z,7.70
2023-02-04T10:06:40.173Z,7.90
2023-02-04T10:09:07.778Z,8.50
2023-02-04T10:11:38.566Z,9.60
2023-02-04T10:14:06.083Z,10.97
2023-02-04T10:16:34.476Z,10.20
2023-02-04T10:19:03.676Z,11.70
2023-02-04T10:21:32.314Z,12.00
2023-02-04T10:24:00.887Z,12.70
2023-02-04T10:26:29.717Z,13.90
2023-02-04T10:29:02.541Z,10.50
2023-02-04T10:31:37.770Z,11.23
2023-02-04T10:34:06.489Z,10.13
2023-02-04T10:36:34.026Z,11.17
2023-02-04T10:39:02.087Z,10.70
2023-02-04T10:41:29.539Z,9.33
2023-02-04T10:44:05.544Z,11.80
2023-02-04T10:46:33.408Z,11.07
2023-02-04T10:49:01.084Z,10.80
2023-02-04T10:51:29.312Z,10.30
2023-02-04T10:54:14.360Z,11.40
2023-02-04T10:56:41.956Z,9.47
2023-02-04T10:59:17.223Z,9.70
2023-02-04T11:01:44.775Z,10.10
2023-02-04T11:04:12.232Z,9.73
2023-02-04T11:06:39.711Z,10.13
2023-02-04T11:09:07.194Z,10.50
2023-02-04T11:11:34.831Z,11.20
2023-02-04T11:14:04.326Z,10.63
2023-02-04T11:16:35.657Z,11.17
2023-02-04T11:19:04.989Z,9.90
2023-02-04T11:21:42.568Z,9.10
2023-02-04T11:24:23.489Z,10.30
2023-02-04T11:26:52.713Z,10.47
2023-02-04T11:29:27.496Z,9.73
2023-02-04T11:32:00.729Z,9.10
2023-02-04T11:34:30.473Z,8.80
2023-02-04T11:37:05.477Z,9.47
2023-02-04T11:39:35.297Z,10.13
2023-02-04T11:42:03.049Z,10.43
2023-02-04T11:44:30.645Z,9.67
2023-02-04T11:47:00.538Z,10.40
2023-02-04T11:49:28.493Z,10.00
2023-02-04T11:52:08.666Z,15.00
2023-02-04T11:54:36.743Z,9.20
2023-02-04T11:57:05.682Z,10.13
2023-02-04T11:59:33.133Z,8.90
2023-02-04T12:02:17.078Z,7.33
2023-02-04T12:04:51.564Z,7.20
2023-02-04T12:07:22.777Z,7.87
2023-02-04T12:09:50.212Z,7.33
2023-02-04T12:12:24.353Z,9.70
2023-02-04T12:14:57.525Z,8.73
2023-02-04T12:17:26.346Z,8.67
2023-02-04T12:19:53.892Z,8.20
2023-02-04T12:22:21.416Z,8.20
2023-02-04T12:24:48.813Z,8.07
2023-02-04T12:27:16.275Z,8.20
2023-02-04T12:29:43.717Z,7.93
2023-02-04T12:32:11.206Z,7.67
2023-02-04T12:34:40.027Z,7.80
2023-02-04T12:37:07.475Z,8.60
2023-02-04T12:39:34.875Z,8.17
2023-02-04T12:42:04.431Z,8.70
2023-02-04T12:44:32.261Z,8.47
2023-02-04T12:46:59.728Z,8.80
2023-02-04T12:49:27.254Z,8.93
2023-02-04T12:51:59.078Z,9.13
2023-02-04T12:54:26.568Z,9.17
2023-02-04T12:56:57.976Z,10.27
2023-02-04T12:59:25.576Z,9.17
2023-02-04T13:01:53.230Z,10.70
2023-02-04T13:04:20.689Z,9.50
2023-02-04T13:06:48.255Z,8.97
2023-02-04T13:09:17.035Z,8.43
2023-02-04T13:11:44.566Z,9.03
2023-02-04T13:14:12.050Z,9.20
2023-02-04T13:16:39.442Z,9.17
2023-02-04T13:19:06.962Z,8.43
2023-02-04T13:21:34.329Z,8.60
2023-02-04T13:24:01.744Z,8.23
2023-02-04T13:26:30.516Z,8.07
2023-02-04T13:28:57.949Z,8.30
2023-02-04T13:31:25.480Z,8.30
2023-02-04T13:33:52.920Z,7.50
2023-02-04T13:36:20.389Z,7.50
2023-02-04T13:38:47.790Z,7.53
2023-02-04T13:41:15.217Z,6.90
2023-02-04T13:43:44.063Z,7.70
2023-02-04T13:46:11.517Z,7.30
2023-02-04T13:48:38.916Z,7.63
2023-02-04T13:51:06.583Z,6.30
2023-02-04T13:53:34.009Z,7.40
2023-02-04T13:56:02.038Z,7.00
2023-02-04T13:58:29.468Z,6.80
2023-02-04T14:00:58.614Z,7.30
2023-02-04T14:03:26.103Z,7.10
2023-02-04T14:05:53.549Z,6.30
2023-02-04T14:08:21.175Z,6.77
2023-02-04T14:10:48.706Z,7.10
2023-02-04T14:13:16.227Z,5.60
2023-02-04T14:15:43.693Z,6.20
2023-02-04T14:18:12.660Z,5.40
2023-02-04T14:20:40.088Z,5.37
2023-02-04T14:23:07.545Z,5.40
2023-02-04T14:25:35.031Z,5.67
2023-02-04T14:28:02.590Z,5.23
2023-02-04T14:30:30.457Z,5.70
2023-02-04T14:32:58.195Z,6.07
2023-02-04T14:35:27.154Z,7.03
2023-02-04T14:37:54.549Z,6.20
2023-02-04T14:40:22.256Z,6.67
2023-02-04T14:42:49.672Z,6.20
2023-02-04T14:45:17.170Z,6.70
2023-02-04T14:47:44.814Z,6.67
2023-02-04T14:50:14.438Z,6.77
2023-02-04T14:52:43.274Z,6.27
2023-02-04T14:55:11.796Z,5.87
2023-02-04T14:57:39.302Z,6.20
2023-02-04T15:00:07.903Z,5.93
2023-02-04T15:02:35.435Z,7.00
2023-02-04T15:05:02.959Z,7.17
2023-02-04T15:07:30.441Z,6.93
2023-02-04T15:09:59.200Z,7.47
2023-02-04T15:12:26.608Z,7.60
2023-02-04T15:14:54.180Z,7.50
2023-02-04T15:17:21.622Z,6.50
2023-02-04T15:19:49.120Z,6.80
2023-02-04T15:22:16.957Z,7.00
2023-02-04T15:24:44.450Z,6.63
2023-02-04T15:27:13.171Z,6.63
2023-02-04T15:29:40.629Z,6.47
2023-02-04T15:32:09.752Z,7.17
2023-02-04T15:34:37.417Z,6.30
2023-02-04T15:37:04.919Z,6.20
2023-02-04T15:39:32.396Z,7.20
2023-02-04T15:41:59.805Z,7.13
2023-02-04T15:44:28.546Z,6.90
2023-02-04T15:46:55.990Z,6.70
2023-02-04T15:49:23.379Z,7.07
2023-02-04T15:51:50.914Z,6.90
2023-02-04T15:54:18.361Z,6.97
2023-02-04T15:56:45.814Z,6.43
2023-02-04T15:59:13.383Z,6.80
2023-02-04T16:01:42.277Z,8.00
2023-02-04T16:04:09.799Z,7.27
2023-02-04T16:06:37.367Z,7.30
2023-02-04T16:09:05.057Z,7.17
2023-02-04T16:11:32.900Z,7.37
2023-02-04T16:14:00.272Z,8.47
2023-02-04T16:16:27.744Z,7.77
2023-02-04T16:18:56.469Z,7.50
2023-02-04T16:21:23.942Z,8.40
2023-02-04T16:23:51.329Z,7.67
2023-02-04T16:26:18.805Z,7.67
2023-02-04T16:28:47.820Z,7.17
2023-02-04T16:31:15.682Z,7.30
2023-02-04T16:33:43.221Z,7.50
2023-02-04T16:36:13.597Z,7.37
2023-02-04T16:38:42.832Z,7.40
2023-02-04T16:41:10.802Z,7.10
2023-02-04T16:43:38.187Z,6.73
2023-02-04T16:46:05.739Z,7.50
2023-02-04T16:48:33.196Z,7.13
2023-02-04T16:51:00.655Z,7.77
2023-02-04T16:53:29.472Z,8.53
2023-02-04T16:55:56.948Z,8.10
2023-02-04T16:58:24.384Z,9.43
2023-02-04T17:00:51.883Z,7.07
2023-02-04T17:03:19.293Z,7.60
2023-02-04T17:05:46.776Z,8.07
2023-02-04T17:08:15.018Z,10.20
2023-02-04T17:11:01.270Z,7.77
2023-02-04T17:13:28.808Z,7.27
2023-02-04T17:16:00.859Z,6.90
2023-02-04T17:18:29.418Z,7.40
2023-02-04T17:20:56.902Z,7.53
2023-02-04T17:23:24.472Z,6.10
2023-02-04T17:25:54.047Z,8.13
2023-02-04T17:28:21.509Z,8.40
2023-02-04T17:30:48.998Z,8.07
2023-02-04T17:33:16.548Z,8.47
2023-02-04T17:35:43.947Z,8.67
2023-02-04T17:38:11.425Z,7.80
2023-02-04T17:40:38.908Z,7.27
2023-02-04T17:43:07.804Z,6.70
2023-02-04T17:45:35.894Z,8.03
2023-02-04T17:48:05.036Z,8.53
2023-02-04T17:50:33.915Z,7.63
2023-02-04T17:53:01.619Z,9.50
2023-02-04T17:55:29.772Z,7.23
2023-02-04T17:57:59.306Z,7.20
2023-02-04T18:00:30.721Z,6.70
2023-02-04T18:02:58.600Z,8.23
2023-02-04T18:05:27.707Z,7.93
2023-02-04T18:07:57.749Z,7.50
2023-02-04T18:10:29.287Z,8.17
2023-02-04T18:12:56.865Z,7.80
2023-02-04T18:15:26.628Z,8.70
2023-02-04T18:17:57.701Z,9.50
2023-02-04T18:20:25.192Z,8.60
2023-02-04T18:22:55.179Z,7.60
2023-02-04T18:25:23.893Z,8.13
2023-02-04T18:27:51.325Z,8.70
2023-02-04T18:30:21.161Z,7.90
2023-02-04T18:32:49.840Z,7.93
2023-02-04T18:35:26.980Z,7.87
2023-02-04T18:37:54.441Z,13.00
2023-02-04T18:40:26.464Z,12.97
2023-02-04T18:42:58.993Z,9.20
2023-02-04T18:45:27.592Z,9.20
2023-02-04T18:47:55.974Z,8.80
2023-02-04T18:50:26.345Z,7.03
2023-02-04T18:52:55.136Z,7.03
2023-02-04T18:55:30.283Z,8.93
2023-02-04T18:57:57.677Z,8.90
2023-02-04T19:00:30.610Z,10.10
2023-02-04T19:02:59.239Z,10.87
2023-02-04T19:05:32.871Z,10.53
2023-02-04T19:08:14.742Z,11.33
2023-02-04T19:10:43.203Z,8.90
2023-02-04T19:13:17.992Z,9.20
2023-02-04T19:15:46.081Z,9.70
2023-02-04T19:18:22.233Z,9.60
2023-02-04T19:20:49.988Z,8.67
2023-02-04T19:23:20.354Z,9.67
2023-02-04T19:25:48.567Z,9.60
2023-02-04T19:28:24.616Z,9.37
2023-02-04T19:30:55.002Z,8.70
2023-02-04T19:33:24.843Z,7.70
2023-02-04T19:35:52.311Z,7.30
2023-02-04T19:38:35.529Z,8.73
2023-02-04T19:41:03.046Z,7.33
2023-02-04T19:43:36.370Z,8.00
2023-02-04T19:46:18.366Z,9.00
2023-02-04T19:48:46.356Z,8.60
2023-02-04T19:51:23.591Z,8.17
2023-02-04T19:53:53.824Z,7.73
2023-02-04T19:56:28.846Z,8.00
2023-02-04T19:58:57.624Z,8.43
2023-02-04T20:01:25.110Z,8.30
2023-02-04T20:03:52.631Z,8.10
2023-02-04T20:06:31.083Z,8.10
2023-02-04T20:09:01.217Z,8.60
2023-02-04T20:11:52.354Z,9.23
2023-02-04T20:14:24.364Z,8.77
2023-02-04T20:16:52.785Z,9.47
2023-02-04T20:19:21.067Z,9.70
2023-02-04T20:21:55.505Z,9.20
2023-02-04T20:24:24.274Z,10.33
2023-02-04T20:26:52.573Z,10.37
2023-02-04T20:29:22.115Z,9.57
2023-02-04T20:31:49.884Z,10.17
2023-02-04T20:34:19.906Z,9.80
2023-02-04T20:36:47.384Z,9.40
2023-02-04T20:39:21.023Z,9.80
2023-02-04T20:41:49.819Z,9.73
2023-02-04T20:44:21.995Z,10.60
2023-02-04T20:46:49.445Z,10.53
2023-02-04T20:49:19.132Z,11.60
2023-02-04T20:51:46.548Z,12.03
2023-02-04T20:54:17.424Z,12.00
2023-02-04T20:56:44.891Z,12.30
2023-02-04T20:59:21.937Z,11.67
2023-02-04T21:01:50.346Z,12.17
2023-02-04T21:04:19.334Z,11.97
2023-02-04T21:06:46.975Z,12.33
2023-02-04T21:09:22.000Z,13.17
2023-02-04T21:11:49.463Z,11.90
2023-02-04T21:14:16.851Z,12.87
2023-02-04T21:16:45.670Z,15.10
2023-02-04T21:19:13.232Z,13.27
2023-02-04T21:21:40.685Z,13.30
2023-02-04T21:24:08.505Z,14.10
2023-02-04T21:26:36.147Z,13.23
2023-02-04T21:29:03.759Z,12.97
2023-02-04T21:31:31.250Z,12.80
2023-02-04T21:34:00.099Z,12.67
2023-02-04T21:36:28.417Z,12.60
2023-02-04T21:38:56.052Z,12.30
2023-02-04T21:41:23.722Z,11.90
2023-02-04T21:43:51.556Z,12.20
2023-02-04T21:46:19.107Z,12.43
2023-02-04T21:48:46.822Z,12.33
2023-02-04T21:51:16.121Z,11.77
2023-02-04T21:53:44.201Z,12.47
2023-02-04T21:56:11.729Z,12.43
2023-02-04T21:58:39.459Z,12.17
2023-02-04T22:01:07.176Z,12.73
2023-02-04T22:03:34.643Z,13.37
2023-02-04T22:06:02.064Z,13.57
2023-02-04T22:08:30.796Z,12.93
2023-02-04T22:10:58.393Z,13.30
2023-02-04T22:13:45.681Z,13.63
2023-02-04T22:16:13.279Z,14.43
2023-02-04T22:18:40.708Z,13.13
2023-02-04T22:21:08.215Z,14.40
2023-02-04T22:23:36.998Z,13.33
2023-02-04T22:26:04.445Z,13.53
2023-02-04T22:28:31.847Z,14.97
2023-02-04T22:30:59.472Z,14.70
2023-02-04T22:33:26.981Z,15.50
2023-02-04T22:35:54.412Z,14.70
2023-02-04T22:38:22.031Z,14.33
2023-02-04T22:40:50.819Z,14.90
2023-02-04T22:43:18.476Z,14.60
2023-02-04T22:45:45.911Z,15.37
2023-02-04T22:48:13.336Z,14.13
2023-02-04T22:50:40.748Z,14.40
2023-02-04T22:53:08.132Z,13.50
2023-02-04T22:55:35.666Z,16.60
2023-02-04T22:58:04.621Z,16.40
2023-02-04T23:00:32.488Z,14.60
2023-02-04T23:02:59.909Z,13.27
2023-02-04T23:05:27.369Z,14.90
2023-02-04T23:07:54.809Z,14.20
2023-02-04T23:10:22.319Z,13.30
2023-02-04T23:12:49.719Z,13.10
2023-02-04T23:15:18.704Z,13.20
2023-02-04T23:17:46.152Z,14.30
2023-02-04T23:20:13.856Z,13.80
2023-02-04T23:22:41.284Z,13.40
2023-02-04T23:25:08.926Z,14.47
2023-02-04T23:27:36.337Z,13.60
2023-02-04T23:30:05.710Z,13.33
2023-02-04T23:32:34.565Z,14.43
2023-02-04T23:35:01.958Z,14.20
2023-02-04T23:37:29.391Z,14.83
2023-02-04T23:39:56.819Z,13.73
2023-02-04T23:42:24.342Z,14.20
2023-02-04T23:44:51.888Z,14.37
2023-02-04T23:47:19.333Z,13.87
2023-02-04T23:49:48.132Z,13.40
2023-02-04T23:52:16.174Z,13.60
2023-02-04T23:54:43.650Z,14.77
2023-02-04T23:57:11.547Z,13.83
2023-02-04T23:59:40.876Z,13.80
